sensor_id;sensor_type;location;lat;lon;timestamp;P1;durP1;ratioP1;P2;durP2;ratioP2
19163;SDS011;9714;51.208;4.242;2023-07-09T00:02:14;13.77;;;5.88;;
19163;SDS011;9714;51.208;4.242;2023-07-09T00:04:41;12.60;;;5.93;;
19163;SDS011;9714;51.208;4.242;2023-07-09T00:07:13;15.32;;;5.35;;
19163;SDS011;9714;51.208;4.242;2023-07-09T00:09:44;13.05;;;5.85;;
19163;SDS011;9714;51.208;4.242;2023-07-09T00:12:12;13.93;;;5.57;;
19163;SDS011;9714;51.208;4.242;2023-07-09T00:14:41;14.35;;;6.15;;
19163;SDS011;9714;51.208;4.242;2023-07-09T00:17:09;17.25;;;6.72;;
19163;SDS011;9714;51.208;4.242;2023-07-09T00:19:38;14.63;;;6.13;;
19163;SDS011;9714;51.208;4.242;2023-07-09T00:22:13;12.15;;;5.65;;
19163;SDS011;9714;51.208;4.242;2023-07-09T00:24:42;14.40;;;6.00;;
19163;SDS011;9714;51.208;4.242;2023-07-09T00:27:11;14.93;;;6.07;;
19163;SDS011;9714;51.208;4.242;2023-07-09T00:29:40;13.35;;;6.30;;
19163;SDS011;9714;51.208;4.242;2023-07-09T00:32:16;12.07;;;5.90;;
19163;SDS011;9714;51.208;4.242;2023-07-09T00:34:48;13.73;;;6.18;;
19163;SDS011;9714;51.208;4.242;2023-07-09T00:37:16;19.85;;;6.32;;
19163;SDS011;9714;51.208;4.242;2023-07-09T00:39:46;20.55;;;6.40;;
19163;SDS011;9714;51.208;4.242;2023-07-09T00:42:13;20.70;;;6.10;;
19163;SDS011;9714;51.208;4.242;2023-07-09T00:44:42;17.00;;;6.85;;
19163;SDS011;9714;51.208;4.242;2023-07-09T00:50:03;19.58;;;7.10;;
19163;SDS011;9714;51.208;4.242;2023-07-09T00:52:42;19.83;;;6.15;;
19163;SDS011;9714;51.208;4.242;2023-07-09T00:55:16;16.10;;;7.28;;
19163;SDS011;9714;51.208;4.242;2023-07-09T00:57:48;18.98;;;7.90;;
19163;SDS011;9714;51.208;4.242;2023-07-09T01:00:21;18.33;;;6.47;;
19163;SDS011;9714;51.208;4.242;2023-07-09T01:02:52;14.20;;;5.80;;
19163;SDS011;9714;51.208;4.242;2023-07-09T01:05:22;14.18;;;5.97;;
19163;SDS011;9714;51.208;4.242;2023-07-09T01:07:50;13.07;;;6.38;;
19163;SDS011;9714;51.208;4.242;2023-07-09T01:10:18;13.98;;;6.32;;
19163;SDS011;9714;51.208;4.242;2023-07-09T01:12:45;13.23;;;6.35;;
19163;SDS011;9714;51.208;4.242;2023-07-09T01:15:15;15.77;;;6.45;;
19163;SDS011;9714;51.208;4.242;2023-07-09T01:17:42;14.10;;;5.95;;
19163;SDS011;9714;51.208;4.242;2023-07-09T01:20:14;15.10;;;6.70;;
19163;SDS011;9714;51.208;4.242;2023-07-09T01:22:49;14.77;;;6.07;;
19163;SDS011;9714;51.208;4.242;2023-07-09T01:25:22;16.95;;;6.40;;
19163;SDS011;9714;51.208;4.242;2023-07-09T01:27:52;13.05;;;6.60;;
19163;SDS011;9714;51.208;4.242;2023-07-09T01:30:20;17.00;;;6.22;;
19163;SDS011;9714;51.208;4.242;2023-07-09T01:32:55;27.63;;;7.25;;
19163;SDS011;9714;51.208;4.242;2023-07-09T01:35:25;16.40;;;6.10;;
19163;SDS011;9714;51.208;4.242;2023-07-09T01:37:54;13.00;;;5.70;;
19163;SDS011;9714;51.208;4.242;2023-07-09T01:40:23;14.93;;;6.53;;
19163;SDS011;9714;51.208;4.242;2023-07-09T01:42:52;14.38;;;5.85;;
19163;SDS011;9714;51.208;4.242;2023-07-09T01:45:25;18.08;;;6.93;;
19163;SDS011;9714;51.208;4.242;2023-07-09T01:47:53;14.90;;;6.75;;
19163;SDS011;9714;51.208;4.242;2023-07-09T01:50:21;19.08;;;6.97;;
19163;SDS011;9714;51.208;4.242;2023-07-09T01:52:49;18.65;;;6.28;;
19163;SDS011;9714;51.208;4.242;2023-07-09T01:55:18;20.00;;;6.95;;
19163;SDS011;9714;51.208;4.242;2023-07-09T01:57:45;16.88;;;6.50;;
19163;SDS011;9714;51.208;4.242;2023-07-09T02:00:14;14.13;;;6.93;;
19163;SDS011;9714;51.208;4.242;2023-07-09T02:02:43;16.55;;;6.40;;
19163;SDS011;9714;51.208;4.242;2023-07-09T02:05:13;19.30;;;7.65;;
19163;SDS011;9714;51.208;4.242;2023-07-09T02:07:41;19.02;;;8.32;;
19163;SDS011;9714;51.208;4.242;2023-07-09T02:10:09;19.30;;;7.63;;
19163;SDS011;9714;51.208;4.242;2023-07-09T02:12:39;19.90;;;7.47;;
19163;SDS011;9714;51.208;4.242;2023-07-09T02:15:06;17.85;;;8.07;;
19163;SDS011;9714;51.208;4.242;2023-07-09T02:17:34;19.27;;;7.28;;
19163;SDS011;9714;51.208;4.242;2023-07-09T02:20:04;12.82;;;7.57;;
19163;SDS011;9714;51.208;4.242;2023-07-09T02:22:32;18.88;;;7.30;;
19163;SDS011;9714;51.208;4.242;2023-07-09T02:24:59;19.77;;;8.00;;
19163;SDS011;9714;51.208;4.242;2023-07-09T02:27:26;17.92;;;7.57;;
19163;SDS011;9714;51.208;4.242;2023-07-09T02:29:55;15.93;;;7.50;;
19163;SDS011;9714;51.208;4.242;2023-07-09T02:32:23;20.65;;;8.45;;
19163;SDS011;9714;51.208;4.242;2023-07-09T02:34:52;16.35;;;7.15;;
19163;SDS011;9714;51.208;4.242;2023-07-09T02:37:21;19.42;;;8.75;;
19163;SDS011;9714;51.208;4.242;2023-07-09T02:39:49;19.17;;;8.23;;
19163;SDS011;9714;51.208;4.242;2023-07-09T02:42:17;21.08;;;7.93;;
19163;SDS011;9714;51.208;4.242;2023-07-09T02:44:45;19.15;;;8.43;;
19163;SDS011;9714;51.208;4.242;2023-07-09T02:47:14;16.05;;;8.07;;
19163;SDS011;9714;51.208;4.242;2023-07-09T02:49:41;20.67;;;8.15;;
19163;SDS011;9714;51.208;4.242;2023-07-09T02:52:09;20.35;;;9.15;;
19163;SDS011;9714;51.208;4.242;2023-07-09T02:54:37;28.52;;;9.10;;
19163;SDS011;9714;51.208;4.242;2023-07-09T02:57:05;22.60;;;8.88;;
19163;SDS011;9714;51.208;4.242;2023-07-09T02:59:33;19.15;;;8.52;;
19163;SDS011;9714;51.208;4.242;2023-07-09T03:02:00;24.65;;;10.02;;
19163;SDS011;9714;51.208;4.242;2023-07-09T03:04:32;28.27;;;9.68;;
19163;SDS011;9714;51.208;4.242;2023-07-09T03:06:59;25.27;;;9.40;;
19163;SDS011;9714;51.208;4.242;2023-07-09T03:09:26;20.95;;;9.48;;
19163;SDS011;9714;51.208;4.242;2023-07-09T03:11:54;22.98;;;8.82;;
19163;SDS011;9714;51.208;4.242;2023-07-09T03:14:21;24.70;;;10.02;;
19163;SDS011;9714;51.208;4.242;2023-07-09T03:16:48;32.92;;;10.00;;
19163;SDS011;9714;51.208;4.242;2023-07-09T03:19:16;28.73;;;11.35;;
19163;SDS011;9714;51.208;4.242;2023-07-09T03:21:44;25.67;;;10.77;;
19163;SDS011;9714;51.208;4.242;2023-07-09T03:24:11;26.17;;;10.23;;
19163;SDS011;9714;51.208;4.242;2023-07-09T03:26:40;31.58;;;10.85;;
19163;SDS011;9714;51.208;4.242;2023-07-09T03:29:08;33.33;;;10.65;;
19163;SDS011;9714;51.208;4.242;2023-07-09T03:31:36;27.67;;;10.75;;
19163;SDS011;9714;51.208;4.242;2023-07-09T03:34:03;28.13;;;11.48;;
19163;SDS011;9714;51.208;4.242;2023-07-09T03:36:30;22.40;;;10.32;;
19163;SDS011;9714;51.208;4.242;2023-07-09T03:38:59;23.05;;;11.25;;
19163;SDS011;9714;51.208;4.242;2023-07-09T03:41:27;23.92;;;11.35;;
19163;SDS011;9714;51.208;4.242;2023-07-09T03:43:54;22.70;;;11.85;;
19163;SDS011;9714;51.208;4.242;2023-07-09T03:46:21;22.10;;;11.45;;
19163;SDS011;9714;51.208;4.242;2023-07-09T03:48:48;23.80;;;11.60;;
19163;SDS011;9714;51.208;4.242;2023-07-09T03:51:15;19.15;;;11.70;;
19163;SDS011;9714;51.208;4.242;2023-07-09T03:53:43;19.10;;;10.82;;
19163;SDS011;9714;51.208;4.242;2023-07-09T03:56:11;21.83;;;11.80;;
19163;SDS011;9714;51.208;4.242;2023-07-09T03:58:38;18.25;;;12.13;;
19163;SDS011;9714;51.208;4.242;2023-07-09T04:01:06;27.58;;;12.98;;
19163;SDS011;9714;51.208;4.242;2023-07-09T04:03:33;21.60;;;11.48;;
19163;SDS011;9714;51.208;4.242;2023-07-09T04:06:00;22.80;;;12.02;;
19163;SDS011;9714;51.208;4.242;2023-07-09T04:08:29;24.27;;;12.68;;
19163;SDS011;9714;51.208;4.242;2023-07-09T04:10:58;24.13;;;13.32;;
19163;SDS011;9714;51.208;4.242;2023-07-09T04:13:29;23.15;;;12.15;;
19163;SDS011;9714;51.208;4.242;2023-07-09T04:15:58;22.90;;;12.43;;
19163;SDS011;9714;51.208;4.242;2023-07-09T04:18:25;22.45;;;12.35;;
19163;SDS011;9714;51.208;4.242;2023-07-09T04:20:52;22.95;;;12.40;;
19163;SDS011;9714;51.208;4.242;2023-07-09T04:23:20;21.92;;;12.23;;
19163;SDS011;9714;51.208;4.242;2023-07-09T04:25:47;22.05;;;11.32;;
19163;SDS011;9714;51.208;4.242;2023-07-09T04:28:15;21.55;;;11.80;;
19163;SDS011;9714;51.208;4.242;2023-07-09T04:30:48;21.73;;;11.82;;
19163;SDS011;9714;51.208;4.242;2023-07-09T04:33:17;22.90;;;11.73;;
19163;SDS011;9714;51.208;4.242;2023-07-09T04:35:46;20.08;;;11.75;;
19163;SDS011;9714;51.208;4.242;2023-07-09T04:38:14;21.70;;;12.23;;
19163;SDS011;9714;51.208;4.242;2023-07-09T04:40:42;22.55;;;12.07;;
19163;SDS011;9714;51.208;4.242;2023-07-09T04:43:09;18.20;;;11.27;;
19163;SDS011;9714;51.208;4.242;2023-07-09T04:45:36;21.27;;;11.90;;
19163;SDS011;9714;51.208;4.242;2023-07-09T04:48:05;21.13;;;11.85;;
19163;SDS011;9714;51.208;4.242;2023-07-09T04:50:33;24.08;;;12.70;;
19163;SDS011;9714;51.208;4.242;2023-07-09T04:53:00;22.55;;;12.50;;
19163;SDS011;9714;51.208;4.242;2023-07-09T04:55:27;21.13;;;12.30;;
19163;SDS011;9714;51.208;4.242;2023-07-09T04:57:54;22.10;;;14.15;;
19163;SDS011;9714;51.208;4.242;2023-07-09T05:00:22;28.63;;;17.20;;
19163;SDS011;9714;51.208;4.242;2023-07-09T05:02:49;30.48;;;20.70;;
19163;SDS011;9714;51.208;4.242;2023-07-09T05:05:18;30.85;;;21.88;;
19163;SDS011;9714;51.208;4.242;2023-07-09T05:07:45;35.45;;;24.60;;
19163;SDS011;9714;51.208;4.242;2023-07-09T05:10:12;39.90;;;27.60;;
19163;SDS011;9714;51.208;4.242;2023-07-09T05:12:47;39.75;;;29.10;;
19163;SDS011;9714;51.208;4.242;2023-07-09T05:15:15;38.60;;;29.77;;
19163;SDS011;9714;51.208;4.242;2023-07-09T05:17:43;38.47;;;29.60;;
19163;SDS011;9714;51.208;4.242;2023-07-09T05:20:10;41.08;;;30.85;;
19163;SDS011;9714;51.208;4.242;2023-07-09T05:22:39;47.70;;;32.63;;
19163;SDS011;9714;51.208;4.242;2023-07-09T05:25:06;43.08;;;33.15;;
19163;SDS011;9714;51.208;4.242;2023-07-09T05:27:34;45.42;;;34.92;;
19163;SDS011;9714;51.208;4.242;2023-07-09T05:30:02;47.33;;;34.38;;
19163;SDS011;9714;51.208;4.242;2023-07-09T05:32:29;46.72;;;35.22;;
19163;SDS011;9714;51.208;4.242;2023-07-09T05:34:57;47.88;;;35.40;;
19163;SDS011;9714;51.208;4.242;2023-07-09T05:37:24;48.08;;;35.72;;
19163;SDS011;9714;51.208;4.242;2023-07-09T05:39:52;47.97;;;36.55;;
19163;SDS011;9714;51.208;4.242;2023-07-09T05:42:19;46.92;;;35.20;;
19163;SDS011;9714;51.208;4.242;2023-07-09T05:44:47;46.47;;;36.38;;
19163;SDS011;9714;51.208;4.242;2023-07-09T05:47:14;47.47;;;35.90;;
19163;SDS011;9714;51.208;4.242;2023-07-09T05:49:42;48.38;;;36.78;;
19163;SDS011;9714;51.208;4.242;2023-07-09T05:52:10;50.50;;;36.63;;
19163;SDS011;9714;51.208;4.242;2023-07-09T05:54:37;54.25;;;36.28;;
19163;SDS011;9714;51.208;4.242;2023-07-09T05:57:06;44.75;;;36.42;;
19163;SDS011;9714;51.208;4.242;2023-07-09T05:59:33;50.47;;;38.30;;
19163;SDS011;9714;51.208;4.242;2023-07-09T06:02:01;51.58;;;38.47;;
19163;SDS011;9714;51.208;4.242;2023-07-09T06:04:28;50.88;;;38.65;;
19163;SDS011;9714;51.208;4.242;2023-07-09T06:06:56;50.92;;;38.97;;
19163;SDS011;9714;51.208;4.242;2023-07-09T06:09:23;50.58;;;40.42;;
19163;SDS011;9714;51.208;4.242;2023-07-09T06:11:50;51.67;;;39.78;;
19163;SDS011;9714;51.208;4.242;2023-07-09T06:14:19;52.58;;;40.65;;
19163;SDS011;9714;51.208;4.242;2023-07-09T06:16:46;50.47;;;40.40;;
19163;SDS011;9714;51.208;4.242;2023-07-09T06:19:13;54.15;;;41.35;;
19163;SDS011;9714;51.208;4.242;2023-07-09T06:21:40;50.35;;;40.65;;
19163;SDS011;9714;51.208;4.242;2023-07-09T06:24:08;53.03;;;40.90;;
19163;SDS011;9714;51.208;4.242;2023-07-09T06:26:35;58.33;;;42.53;;
19163;SDS011;9714;51.208;4.242;2023-07-09T06:29:02;53.25;;;41.33;;
19163;SDS011;9714;51.208;4.242;2023-07-09T06:31:31;51.55;;;42.10;;
19163;SDS011;9714;51.208;4.242;2023-07-09T06:33:58;52.45;;;41.33;;
19163;SDS011;9714;51.208;4.242;2023-07-09T06:36:25;50.45;;;40.10;;
19163;SDS011;9714;51.208;4.242;2023-07-09T06:38:52;52.50;;;39.70;;
19163;SDS011;9714;51.208;4.242;2023-07-09T06:41:19;54.00;;;39.58;;
19163;SDS011;9714;51.208;4.242;2023-07-09T06:43:46;52.55;;;40.08;;
19163;SDS011;9714;51.208;4.242;2023-07-09T06:46:14;49.05;;;37.70;;
19163;SDS011;9714;51.208;4.242;2023-07-09T06:48:43;50.20;;;37.10;;
19163;SDS011;9714;51.208;4.242;2023-07-09T06:51:10;52.05;;;36.45;;
19163;SDS011;9714;51.208;4.242;2023-07-09T06:53:38;50.03;;;37.80;;
19163;SDS011;9714;51.208;4.242;2023-07-09T06:56:05;45.47;;;34.40;;
19163;SDS011;9714;51.208;4.242;2023-07-09T06:58:32;42.15;;;32.70;;
19163;SDS011;9714;51.208;4.242;2023-07-09T07:01:00;41.33;;;32.70;;
19163;SDS011;9714;51.208;4.242;2023-07-09T07:03:28;43.78;;;32.58;;
19163;SDS011;9714;51.208;4.242;2023-07-09T07:05:57;38.63;;;30.83;;
19163;SDS011;9714;51.208;4.242;2023-07-09T07:08:25;40.65;;;30.63;;
19163;SDS011;9714;51.208;4.242;2023-07-09T07:10:54;41.85;;;30.92;;
19163;SDS011;9714;51.208;4.242;2023-07-09T07:13:27;41.60;;;29.10;;
19163;SDS011;9714;51.208;4.242;2023-07-09T07:15:54;37.35;;;27.50;;
19163;SDS011;9714;51.208;4.242;2023-07-09T07:18:21;39.42;;;26.92;;
19163;SDS011;9714;51.208;4.242;2023-07-09T07:20:49;35.40;;;26.08;;
19163;SDS011;9714;51.208;4.242;2023-07-09T07:23:18;33.30;;;23.58;;
19163;SDS011;9714;51.208;4.242;2023-07-09T07:25:46;35.00;;;22.58;;
19163;SDS011;9714;51.208;4.242;2023-07-09T07:28:14;31.50;;;22.15;;
19163;SDS011;9714;51.208;4.242;2023-07-09T07:30:42;34.47;;;19.80;;
19163;SDS011;9714;51.208;4.242;2023-07-09T07:33:09;29.02;;;17.45;;
19163;SDS011;9714;51.208;4.242;2023-07-09T07:35:37;28.83;;;16.75;;
19163;SDS011;9714;51.208;4.242;2023-07-09T07:38:04;26.73;;;14.95;;
19163;SDS011;9714;51.208;4.242;2023-07-09T07:40:33;22.50;;;13.23;;
19163;SDS011;9714;51.208;4.242;2023-07-09T07:43:00;21.85;;;13.45;;
19163;SDS011;9714;51.208;4.242;2023-07-09T07:45:28;19.88;;;10.93;;
19163;SDS011;9714;51.208;4.242;2023-07-09T07:47:55;20.20;;;10.90;;
19163;SDS011;9714;51.208;4.242;2023-07-09T07:50:22;17.52;;;10.75;;
19163;SDS011;9714;51.208;4.242;2023-07-09T07:52:49;19.77;;;10.43;;
19163;SDS011;9714;51.208;4.242;2023-07-09T07:55:16;16.20;;;8.10;;
19163;SDS011;9714;51.208;4.242;2023-07-09T07:57:47;19.17;;;7.25;;
19163;SDS011;9714;51.208;4.242;2023-07-09T08:00:22;16.35;;;7.40;;
19163;SDS011;9714;51.208;4.242;2023-07-09T08:02:49;17.20;;;7.78;;
19163;SDS011;9714;51.208;4.242;2023-07-09T08:05:17;16.17;;;7.30;;
19163;SDS011;9714;51.208;4.242;2023-07-09T08:07:44;15.10;;;7.25;;
19163;SDS011;9714;51.208;4.242;2023-07-09T08:10:12;13.25;;;6.50;;
19163;SDS011;9714;51.208;4.242;2023-07-09T08:12:40;13.05;;;6.28;;
19163;SDS011;9714;51.208;4.242;2023-07-09T08:15:09;14.38;;;6.30;;
19163;SDS011;9714;51.208;4.242;2023-07-09T08:17:37;14.50;;;5.90;;
19163;SDS011;9714;51.208;4.242;2023-07-09T08:20:05;13.63;;;5.80;;
19163;SDS011;9714;51.208;4.242;2023-07-09T08:22:33;16.10;;;6.30;;
19163;SDS011;9714;51.208;4.242;2023-07-09T08:25:00;14.50;;;6.13;;
19163;SDS011;9714;51.208;4.242;2023-07-09T08:27:28;12.45;;;6.03;;
19163;SDS011;9714;51.208;4.242;2023-07-09T08:29:56;18.45;;;6.07;;
19163;SDS011;9714;51.208;4.242;2023-07-09T08:32:24;13.23;;;5.93;;
19163;SDS011;9714;51.208;4.242;2023-07-09T08:34:53;15.82;;;6.72;;
19163;SDS011;9714;51.208;4.242;2023-07-09T08:37:20;14.68;;;5.38;;
19163;SDS011;9714;51.208;4.242;2023-07-09T08:39:47;13.48;;;5.75;;
19163;SDS011;9714;51.208;4.242;2023-07-09T08:42:15;11.95;;;6.00;;
19163;SDS011;9714;51.208;4.242;2023-07-09T08:47:39;14.68;;;5.28;;
19163;SDS011;9714;51.208;4.242;2023-07-09T08:50:14;14.80;;;4.72;;
19163;SDS011;9714;51.208;4.242;2023-07-09T08:52:45;12.45;;;5.03;;
19163;SDS011;9714;51.208;4.242;2023-07-09T08:55:15;10.15;;;4.20;;
19163;SDS011;9714;51.208;4.242;2023-07-09T08:57:44;13.65;;;5.30;;
19163;SDS011;9714;51.208;4.242;2023-07-09T09:00:17;11.25;;;4.78;;
19163;SDS011;9714;51.208;4.242;2023-07-09T09:02:51;11.90;;;4.68;;
19163;SDS011;9714;51.208;4.242;2023-07-09T09:05:23;8.43;;;3.97;;
19163;SDS011;9714;51.208;4.242;2023-07-09T09:07:51;12.50;;;4.75;;
19163;SDS011;9714;51.208;4.242;2023-07-09T09:10:23;12.35;;;5.13;;
19163;SDS011;9714;51.208;4.242;2023-07-09T09:12:59;9.70;;;4.55;;
19163;SDS011;9714;51.208;4.242;2023-07-09T09:15:33;12.55;;;4.93;;
19163;SDS011;9714;51.208;4.242;2023-07-09T09:18:11;13.25;;;6.38;;
19163;SDS011;9714;51.208;4.242;2023-07-09T09:20:47;13.65;;;5.43;;
19163;SDS011;9714;51.208;4.242;2023-07-09T09:23:19;13.45;;;5.93;;
19163;SDS011;9714;51.208;4.242;2023-07-09T09:25:49;13.38;;;5.80;;
19163;SDS011;9714;51.208;4.242;2023-07-09T09:28:19;11.73;;;5.30;;
19163;SDS011;9714;51.208;4.242;2023-07-09T09:30:47;11.18;;;5.03;;
19163;SDS011;9714;51.208;4.242;2023-07-09T09:33:16;13.80;;;5.97;;
19163;SDS011;9714;51.208;4.242;2023-07-09T09:35:44;17.98;;;6.25;;
19163;SDS011;9714;51.208;4.242;2023-07-09T09:38:16;14.98;;;7.05;;
19163;SDS011;9714;51.208;4.242;2023-07-09T09:40:45;12.50;;;5.78;;
19163;SDS011;9714;51.208;4.242;2023-07-09T09:43:14;12.90;;;6.22;;
19163;SDS011;9714;51.208;4.242;2023-07-09T09:45:44;14.43;;;7.32;;
19163;SDS011;9714;51.208;4.242;2023-07-09T09:48:15;13.63;;;6.45;;
19163;SDS011;9714;51.208;4.242;2023-07-09T09:50:47;12.82;;;6.50;;
19163;SDS011;9714;51.208;4.242;2023-07-09T09:53:18;15.35;;;6.38;;
19163;SDS011;9714;51.208;4.242;2023-07-09T09:55:47;11.82;;;6.18;;
19163;SDS011;9714;51.208;4.242;2023-07-09T09:58:15;19.13;;;8.25;;
19163;SDS011;9714;51.208;4.242;2023-07-09T10:00:47;15.40;;;6.85;;
19163;SDS011;9714;51.208;4.242;2023-07-09T10:03:18;13.70;;;6.95;;
19163;SDS011;9714;51.208;4.242;2023-07-09T10:05:48;15.88;;;7.80;;
19163;SDS011;9714;51.208;4.242;2023-07-09T10:08:22;13.90;;;7.38;;
19163;SDS011;9714;51.208;4.242;2023-07-09T10:11:00;13.57;;;7.72;;
19163;SDS011;9714;51.208;4.242;2023-07-09T10:13:34;13.60;;;7.50;;
19163;SDS011;9714;51.208;4.242;2023-07-09T10:16:06;15.98;;;7.00;;
19163;SDS011;9714;51.208;4.242;2023-07-09T10:18:41;15.15;;;6.35;;
19163;SDS011;9714;51.208;4.242;2023-07-09T10:21:18;12.32;;;5.55;;
19163;SDS011;9714;51.208;4.242;2023-07-09T10:24:05;10.50;;;4.35;;
19163;SDS011;9714;51.208;4.242;2023-07-09T10:26:43;11.82;;;5.10;;
19163;SDS011;9714;51.208;4.242;2023-07-09T10:32:13;9.75;;;4.35;;
19163;SDS011;9714;51.208;4.242;2023-07-09T10:34:51;13.20;;;4.10;;
19163;SDS011;9714;51.208;4.242;2023-07-09T10:37:37;12.63;;;3.90;;
19163;SDS011;9714;51.208;4.242;2023-07-09T10:40:25;9.65;;;4.45;;
19163;SDS011;9714;51.208;4.242;2023-07-09T10:42:58;9.77;;;4.40;;
19163;SDS011;9714;51.208;4.242;2023-07-09T10:45:29;11.63;;;3.78;;
19163;SDS011;9714;51.208;4.242;2023-07-09T10:47:59;11.93;;;4.40;;
19163;SDS011;9714;51.208;4.242;2023-07-09T10:50:30;10.95;;;3.47;;
19163;SDS011;9714;51.208;4.242;2023-07-09T10:53:01;10.40;;;3.95;;
19163;SDS011;9714;51.208;4.242;2023-07-09T10:55:33;8.98;;;3.22;;
19163;SDS011;9714;51.208;4.242;2023-07-09T10:58:10;11.23;;;4.03;;
19163;SDS011;9714;51.208;4.242;2023-07-09T11:00:51;9.90;;;3.80;;
19163;SDS011;9714;51.208;4.242;2023-07-09T11:03:19;15.48;;;3.67;;
19163;SDS011;9714;51.208;4.242;2023-07-09T11:05:51;10.10;;;3.60;;
19163;SDS011;9714;51.208;4.242;2023-07-09T11:08:20;8.10;;;3.15;;
19163;SDS011;9714;51.208;4.242;2023-07-09T11:10:52;10.40;;;3.47;;
19163;SDS011;9714;51.208;4.242;2023-07-09T11:13:26;9.73;;;3.13;;
19163;SDS011;9714;51.208;4.242;2023-07-09T11:16:05;10.25;;;3.42;;
19163;SDS011;9714;51.208;4.242;2023-07-09T11:21:22;10.50;;;3.67;;
19163;SDS011;9714;51.208;4.242;2023-07-09T11:23:53;11.40;;;3.78;;
19163;SDS011;9714;51.208;4.242;2023-07-09T11:26:25;10.55;;;3.65;;
19163;SDS011;9714;51.208;4.242;2023-07-09T11:28:54;10.50;;;3.38;;
19163;SDS011;9714;51.208;4.242;2023-07-09T11:31:23;9.10;;;3.50;;
19163;SDS011;9714;51.208;4.242;2023-07-09T11:34:01;9.10;;;3.30;;
19163;SDS011;9714;51.208;4.242;2023-07-09T11:36:50;13.88;;;4.25;;
19163;SDS011;9714;51.208;4.242;2023-07-09T11:39:27;14.50;;;4.30;;
19163;SDS011;9714;51.208;4.242;2023-07-09T11:41:56;14.57;;;4.43;;
19163;SDS011;9714;51.208;4.242;2023-07-09T11:44:24;12.82;;;4.55;;
19163;SDS011;9714;51.208;4.242;2023-07-09T11:47:01;14.50;;;3.92;;
19163;SDS011;9714;51.208;4.242;2023-07-09T11:49:43;10.20;;;3.65;;
19163;SDS011;9714;51.208;4.242;2023-07-09T11:52:19;14.20;;;3.97;;
19163;SDS011;9714;51.208;4.242;2023-07-09T11:54:53;11.05;;;3.72;;
19163;SDS011;9714;51.208;4.242;2023-07-09T11:57:22;13.00;;;3.53;;
19163;SDS011;9714;51.208;4.242;2023-07-09T11:59:49;11.05;;;3.80;;
19163;SDS011;9714;51.208;4.242;2023-07-09T12:02:16;12.43;;;3.90;;
19163;SDS011;9714;51.208;4.242;2023-07-09T12:04:47;10.60;;;3.58;;
19163;SDS011;9714;51.208;4.242;2023-07-09T12:07:16;10.90;;;3.55;;
19163;SDS011;9714;51.208;4.242;2023-07-09T12:09:52;7.97;;;3.17;;
19163;SDS011;9714;51.208;4.242;2023-07-09T12:12:21;12.20;;;3.13;;
19163;SDS011;9714;51.208;4.242;2023-07-09T12:14:51;10.80;;;3.15;;
19163;SDS011;9714;51.208;4.242;2023-07-09T12:17:18;9.35;;;3.10;;
19163;SDS011;9714;51.208;4.242;2023-07-09T12:19:45;11.75;;;3.60;;
19163;SDS011;9714;51.208;4.242;2023-07-09T12:22:15;12.00;;;3.47;;
19163;SDS011;9714;51.208;4.242;2023-07-09T12:24:46;14.57;;;3.67;;
19163;SDS011;9714;51.208;4.242;2023-07-09T12:27:19;13.68;;;3.83;;
19163;SDS011;9714;51.208;4.242;2023-07-09T12:29:50;16.95;;;4.15;;
19163;SDS011;9714;51.208;4.242;2023-07-09T12:32:20;13.07;;;3.85;;
19163;SDS011;9714;51.208;4.242;2023-07-09T12:34:49;17.30;;;8.00;;
19163;SDS011;9714;51.208;4.242;2023-07-09T12:37:18;15.48;;;4.63;;
19163;SDS011;9714;51.208;4.242;2023-07-09T12:39:49;12.43;;;3.92;;
19163;SDS011;9714;51.208;4.242;2023-07-09T12:42:18;12.98;;;3.58;;
19163;SDS011;9714;51.208;4.242;2023-07-09T12:44:49;16.35;;;4.65;;
19163;SDS011;9714;51.208;4.242;2023-07-09T12:47:16;15.43;;;4.40;;
19163;SDS011;9714;51.208;4.242;2023-07-09T12:49:46;15.32;;;4.18;;
19163;SDS011;9714;51.208;4.242;2023-07-09T12:52:18;11.95;;;3.70;;
19163;SDS011;9714;51.208;4.242;2023-07-09T12:54:56;10.80;;;3.65;;
19163;SDS011;9714;51.208;4.242;2023-07-09T12:57:26;11.23;;;3.75;;
19163;SDS011;9714;51.208;4.242;2023-07-09T12:59:55;10.93;;;3.55;;
19163;SDS011;9714;51.208;4.242;2023-07-09T13:02:24;10.57;;;3.85;;
19163;SDS011;9714;51.208;4.242;2023-07-09T13:04:59;12.35;;;3.78;;
19163;SDS011;9714;51.208;4.242;2023-07-09T13:07:30;18.25;;;5.22;;
19163;SDS011;9714;51.208;4.242;2023-07-09T13:10:06;16.33;;;4.65;;
19163;SDS011;9714;51.208;4.242;2023-07-09T13:12:40;14.93;;;5.15;;
19163;SDS011;9714;51.208;4.242;2023-07-09T13:18:06;15.85;;;5.70;;
19163;SDS011;9714;51.208;4.242;2023-07-09T13:20:37;16.13;;;6.10;;
19163;SDS011;9714;51.208;4.242;2023-07-09T13:23:09;17.15;;;6.38;;
19163;SDS011;9714;51.208;4.242;2023-07-09T13:25:39;15.95;;;6.20;;
19163;SDS011;9714;51.208;4.242;2023-07-09T13:28:11;18.85;;;6.00;;
19163;SDS011;9714;51.208;4.242;2023-07-09T13:30:43;15.20;;;6.60;;
19163;SDS011;9714;51.208;4.242;2023-07-09T13:33:11;17.40;;;6.63;;
19163;SDS011;9714;51.208;4.242;2023-07-09T13:35:39;19.30;;;7.38;;
19163;SDS011;9714;51.208;4.242;2023-07-09T13:38:11;20.23;;;7.50;;
19163;SDS011;9714;51.208;4.242;2023-07-09T13:40:41;16.63;;;6.70;;
19163;SDS011;9714;51.208;4.242;2023-07-09T13:43:13;17.75;;;6.78;;
19163;SDS011;9714;51.208;4.242;2023-07-09T13:45:42;15.10;;;6.32;;
19163;SDS011;9714;51.208;4.242;2023-07-09T13:48:13;14.32;;;6.63;;
19163;SDS011;9714;51.208;4.242;2023-07-09T13:50:42;16.60;;;6.47;;
19163;SDS011;9714;51.208;4.242;2023-07-09T13:53:12;15.05;;;6.15;;
19163;SDS011;9714;51.208;4.242;2023-07-09T13:55:43;18.90;;;6.05;;
19163;SDS011;9714;51.208;4.242;2023-07-09T13:58:12;14.13;;;4.75;;
19163;SDS011;9714;51.208;4.242;2023-07-09T14:00:41;12.35;;;4.88;;
19163;SDS011;9714;51.208;4.242;2023-07-09T14:03:12;14.77;;;5.85;;
19163;SDS011;9714;51.208;4.242;2023-07-09T14:05:43;14.50;;;6.20;;
19163;SDS011;9714;51.208;4.242;2023-07-09T14:08:11;15.07;;;5.78;;
19163;SDS011;9714;51.208;4.242;2023-07-09T14:10:39;15.77;;;6.10;;
19163;SDS011;9714;51.208;4.242;2023-07-09T14:13:09;17.73;;;7.20;;
19163;SDS011;9714;51.208;4.242;2023-07-09T14:15:43;14.40;;;5.78;;
19163;SDS011;9714;51.208;4.242;2023-07-09T14:18:11;16.35;;;6.78;;
19163;SDS011;9714;51.208;4.242;2023-07-09T14:20:41;17.67;;;6.78;;
19163;SDS011;9714;51.208;4.242;2023-07-09T14:23:10;13.38;;;5.72;;
19163;SDS011;9714;51.208;4.242;2023-07-09T14:25:39;17.55;;;6.22;;
19163;SDS011;9714;51.208;4.242;2023-07-09T14:28:10;19.55;;;7.00;;
19163;SDS011;9714;51.208;4.242;2023-07-09T14:30:40;15.65;;;6.47;;
19163;SDS011;9714;51.208;4.242;2023-07-09T14:33:11;20.58;;;7.00;;
19163;SDS011;9714;51.208;4.242;2023-07-09T14:35:40;17.10;;;7.40;;
19163;SDS011;9714;51.208;4.242;2023-07-09T14:38:12;19.10;;;6.63;;
19163;SDS011;9714;51.208;4.242;2023-07-09T14:40:43;17.52;;;7.35;;
19163;SDS011;9714;51.208;4.242;2023-07-09T14:43:12;19.65;;;7.53;;
19163;SDS011;9714;51.208;4.242;2023-07-09T14:45:46;16.15;;;7.10;;
19163;SDS011;9714;51.208;4.242;2023-07-09T14:48:15;15.38;;;7.28;;
19163;SDS011;9714;51.208;4.242;2023-07-09T14:50:43;16.02;;;7.38;;
19163;SDS011;9714;51.208;4.242;2023-07-09T14:53:12;15.40;;;7.85;;
19163;SDS011;9714;51.208;4.242;2023-07-09T14:55:43;19.75;;;8.45;;
19163;SDS011;9714;51.208;4.242;2023-07-09T14:58:15;18.00;;;8.15;;
19163;SDS011;9714;51.208;4.242;2023-07-09T15:00:44;20.48;;;8.25;;
19163;SDS011;9714;51.208;4.242;2023-07-09T15:03:13;18.38;;;8.25;;
19163;SDS011;9714;51.208;4.242;2023-07-09T15:05:46;22.10;;;8.50;;
19163;SDS011;9714;51.208;4.242;2023-07-09T15:08:16;20.92;;;9.13;;
19163;SDS011;9714;51.208;4.242;2023-07-09T15:10:44;24.77;;;8.85;;
19163;SDS011;9714;51.208;4.242;2023-07-09T15:13:18;19.10;;;9.10;;